sensor_id;sensor_type;location;lat;lon;timestamp;P1;durP1;ratioP1;P2;durP2;ratioP2
10489;SDS011;35569;48.402;10.670;2023-04-01T00:00:08;1.40;;;1.40;;
10489;SDS011;35569;48.402;10.670;2023-04-01T00:00:44;2.20;;;2.20;;
10489;SDS011;35569;48.402;10.670;2023-04-01T00:01:17;1.80;;;1.80;;
10489;SDS011;35569;48.402;10.670;2023-04-01T00:01:52;1.07;;;1.07;;
10489;SDS011;35569;48.402;10.670;2023-04-01T00:02:24;0.40;;;0.40;;
10489;SDS011;35569;48.402;10.670;2023-04-01T00:02:57;0.50;;;0.50;;
10489;SDS011;35569;48.402;10.670;2023-04-01T00:03:33;0.80;;;0.80;;
10489;SDS011;35569;48.402;10.670;2023-04-01T00:04:05;0.70;;;0.70;;
10489;SDS011;35569;48.402;10.670;2023-04-01T00:04:38;0.70;;;0.70;;
10489;SDS011;35569;48.402;10.670;2023-04-01T00:05:13;0.50;;;0.50;;
10489;SDS011;35569;48.402;10.670;2023-04-01T00:05:48;0.60;;;0.60;;
10489;SDS011;35569;48.402;10.670;2023-04-01T00:06:21;0.50;;;0.50;;
10489;SDS011;35569;48.402;10.670;2023-04-01T00:06:56;0.50;;;0.40;;
10489;SDS011;35569;48.402;10.670;2023-04-01T00:07:29;0.70;;;0.70;;
10489;SDS011;35569;48.402;10.670;2023-04-01T00:08:02;1.10;;;1.10;;
10489;SDS011;35569;48.402;10.670;2023-04-01T00:08:37;0.70;;;0.70;;
10489;SDS011;35569;48.402;10.670;2023-04-01T00:09:09;0.50;;;0.50;;
10489;SDS011;35569;48.402;10.670;2023-04-01T00:09:42;0.60;;;0.60;;
10489;SDS011;35569;48.402;10.670;2023-04-01T00:10:17;0.50;;;0.50;;
10489;SDS011;35569;48.402;10.670;2023-04-01T00:10:50;0.70;;;0.70;;
10489;SDS011;35569;48.402;10.670;2023-04-01T00:11:22;1.40;;;1.40;;
10489;SDS011;35569;48.402;10.670;2023-04-01T00:11:58;0.73;;;0.73;;
10489;SDS011;35569;48.402;10.670;2023-04-01T00:12:31;0.40;;;0.40;;
10489;SDS011;35569;48.402;10.670;2023-04-01T00:13:03;0.40;;;0.40;;
10489;SDS011;35569;48.402;10.670;2023-04-01T00:13:39;0.30;;;0.30;;
10489;SDS011;35569;48.402;10.670;2023-04-01T00:14:11;0.50;;;0.40;;
10489;SDS011;35569;48.402;10.670;2023-04-01T00:14:44;0.50;;;0.50;;
10489;SDS011;35569;48.402;10.670;2023-04-01T00:15:19;0.40;;;0.40;;
10489;SDS011;35569;48.402;10.670;2023-04-01T00:15:51;0.47;;;0.47;;
10489;SDS011;35569;48.402;10.670;2023-04-01T00:16:25;0.40;;;0.40;;
10489;SDS011;35569;48.402;10.670;2023-04-01T00:17:00;0.40;;;0.40;;
10489;SDS011;35569;48.402;10.670;2023-04-01T00:17:33;0.50;;;0.50;;
10489;SDS011;35569;48.402;10.670;2023-04-01T00:18:06;0.60;;;0.60;;
10489;SDS011;35569;48.402;10.670;2023-04-01T00:18:41;0.40;;;0.40;;
10489;SDS011;35569;48.402;10.670;2023-04-01T00:19:14;0.40;;;0.40;;
10489;SDS011;35569;48.402;10.670;2023-04-01T00:19:47;0.40;;;0.40;;
10489;SDS011;35569;48.402;10.670;2023-04-01T00:20:22;0.40;;;0.40;;
10489;SDS011;35569;48.402;10.670;2023-04-01T00:20:57;0.40;;;0.40;;
10489;SDS011;35569;48.402;10.670;2023-04-01T00:21:30;1.03;;;0.40;;
10489;SDS011;35569;48.402;10.670;2023-04-01T00:22:05;0.40;;;0.40;;
10489;SDS011;35569;48.402;10.670;2023-04-01T00:22:37;0.40;;;0.40;;
10489;SDS011;35569;48.402;10.670;2023-04-01T00:23:10;0.40;;;0.40;;
10489;SDS011;35569;48.402;10.670;2023-04-01T00:23:42;0.40;;;0.40;;
10489;SDS011;35569;48.402;10.670;2023-04-01T00:24:17;0.40;;;0.33;;
10489;SDS011;35569;48.402;10.670;2023-04-01T00:24:50;0.40;;;0.40;;
10489;SDS011;35569;48.402;10.670;2023-04-01T00:25:23;0.40;;;0.40;;
10489;SDS011;35569;48.402;10.670;2023-04-01T00:25:58;0.50;;;0.50;;
10489;SDS011;35569;48.402;10.670;2023-04-01T00:26:32;0.47;;;0.47;;
10489;SDS011;35569;48.402;10.670;2023-04-01T00:27:07;0.40;;;0.40;;
10489;SDS011;35569;48.402;10.670;2023-04-01T00:27:39;0.40;;;0.40;;
10489;SDS011;35569;48.402;10.670;2023-04-01T00:28:12;0.43;;;0.43;;
10489;SDS011;35569;48.402;10.670;2023-04-01T00:28:47;0.40;;;0.40;;
10489;SDS011;35569;48.402;10.670;2023-04-01T00:29:20;0.40;;;0.40;;
10489;SDS011;35569;48.402;10.670;2023-04-01T00:29:52;0.37;;;0.37;;
10489;SDS011;35569;48.402;10.670;2023-04-01T00:30:27;0.40;;;0.40;;
10489;SDS011;35569;48.402;10.670;2023-04-01T00:31:03;0.40;;;0.40;;
10489;SDS011;35569;48.402;10.670;2023-04-01T00:31:39;0.33;;;0.33;;
10489;SDS011;35569;48.402;10.670;2023-04-01T00:32:12;0.40;;;0.40;;
10489;SDS011;35569;48.402;10.670;2023-04-01T00:32:45;0.40;;;0.40;;
10489;SDS011;35569;48.402;10.670;2023-04-01T00:33:20;0.40;;;0.40;;
10489;SDS011;35569;48.402;10.670;2023-04-01T00:33:52;0.40;;;0.40;;
10489;SDS011;35569;48.402;10.670;2023-04-01T00:34:25;0.40;;;0.40;;
10489;SDS011;35569;48.402;10.670;2023-04-01T00:35:00;0.40;;;0.40;;
10489;SDS011;35569;48.402;10.670;2023-04-01T00:35:32;0.40;;;0.40;;
10489;SDS011;35569;48.402;10.670;2023-04-01T00:36:08;0.40;;;0.40;;
10489;SDS011;35569;48.402;10.670;2023-04-01T00:36:44;0.40;;;0.40;;
10489;SDS011;35569;48.402;10.670;2023-04-01T00:37:16;0.50;;;0.50;;
10489;SDS011;35569;48.402;10.670;2023-04-01T00:37:49;0.40;;;0.40;;
10489;SDS011;35569;48.402;10.670;2023-04-01T00:38:24;0.47;;;0.40;;
10489;SDS011;35569;48.402;10.670;2023-04-01T00:38:57;0.50;;;0.50;;
10489;SDS011;35569;48.402;10.670;2023-04-01T00:39:30;0.40;;;0.40;;
10489;SDS011;35569;48.402;10.670;2023-04-01T00:40:07;0.60;;;0.40;;
10489;SDS011;35569;48.402;10.670;2023-04-01T00:40:40;0.40;;;0.40;;
10489;SDS011;35569;48.402;10.670;2023-04-01T00:41:14;0.50;;;0.40;;
10489;SDS011;35569;48.402;10.670;2023-04-01T00:41:49;0.40;;;0.40;;
10489;SDS011;35569;48.402;10.670;2023-04-01T00:42:23;0.30;;;0.30;;
10489;SDS011;35569;48.402;10.670;2023-04-01T00:42:55;0.40;;;0.40;;
10489;SDS011;35569;48.402;10.670;2023-04-01T00:43:28;0.30;;;0.30;;
10489;SDS011;35569;48.402;10.670;2023-04-01T00:44:14;0.40;;;0.40;;
10489;SDS011;35569;48.402;10.670;2023-04-01T00:44:50;0.40;;;0.40;;
10489;SDS011;35569;48.402;10.670;2023-04-01T00:45:25;0.40;;;0.40;;
10489;SDS011;35569;48.402;10.670;2023-04-01T00:46:03;1.10;;;0.60;;
10489;SDS011;35569;48.402;10.670;2023-04-01T00:46:35;0.40;;;0.40;;
10489;SDS011;35569;48.402;10.670;2023-04-01T00:47:08;0.40;;;0.40;;
10489;SDS011;35569;48.402;10.670;2023-04-01T00:47:43;0.50;;;0.40;;
10489;SDS011;35569;48.402;10.670;2023-04-01T00:48:16;0.40;;;0.40;;
10489;SDS011;35569;48.402;10.670;2023-04-01T00:48:51;0.30;;;0.30;;
10489;SDS011;35569;48.402;10.670;2023-04-01T00:49:28;0.40;;;0.40;;
10489;SDS011;35569;48.402;10.670;2023-04-01T00:50:01;0.50;;;0.50;;
10489;SDS011;35569;48.402;10.670;2023-04-01T00:50:34;0.30;;;0.30;;
10489;SDS011;35569;48.402;10.670;2023-04-01T00:51:13;0.50;;;0.50;;
10489;SDS011;35569;48.402;10.670;2023-04-01T00:51:48;0.40;;;0.40;;
10489;SDS011;35569;48.402;10.670;2023-04-01T00:52:22;0.40;;;0.40;;
10489;SDS011;35569;48.402;10.670;2023-04-01T00:53:00;0.40;;;0.40;;
10489;SDS011;35569;48.402;10.670;2023-04-01T00:53:33;0.30;;;0.30;;
10489;SDS011;35569;48.402;10.670;2023-04-01T00:54:08;0.50;;;0.50;;
10489;SDS011;35569;48.402;10.670;2023-04-01T00:54:45;0.40;;;0.40;;
10489;SDS011;35569;48.402;10.670;2023-04-01T00:55:19;0.50;;;0.50;;
10489;SDS011;35569;48.402;10.670;2023-04-01T00:55:54;0.30;;;0.30;;
10489;SDS011;35569;48.402;10.670;2023-04-01T00:56:32;0.40;;;0.40;;
10489;SDS011;35569;48.402;10.670;2023-04-01T00:57:07;0.40;;;0.40;;
10489;SDS011;35569;48.402;10.670;2023-04-01T00:57:41;0.40;;;0.40;;
10489;SDS011;35569;48.402;10.670;2023-04-01T00:58:15;0.50;;;0.40;;
10489;SDS011;35569;48.402;10.670;2023-04-01T00:58:52;0.53;;;0.40;;
10489;SDS011;35569;48.402;10.670;2023-04-01T00:59:28;0.40;;;0.30;;
10489;SDS011;35569;48.402;10.670;2023-04-01T01:00:03;0.43;;;0.40;;
10489;SDS011;35569;48.402;10.670;2023-04-01T01:00:39;0.40;;;0.40;;
10489;SDS011;35569;48.402;10.670;2023-04-01T01:01:12;0.40;;;0.40;;
10489;SDS011;35569;48.402;10.670;2023-04-01T01:01:45;0.40;;;0.40;;
10489;SDS011;35569;48.402;10.670;2023-04-01T01:02:20;0.30;;;0.30;;
10489;SDS011;35569;48.402;10.670;2023-04-01T01:02:53;0.40;;;0.40;;
10489;SDS011;35569;48.402;10.670;2023-04-01T01:03:26;0.40;;;0.40;;
10489;SDS011;35569;48.402;10.670;2023-04-01T01:04:01;0.60;;;0.60;;
10489;SDS011;35569;48.402;10.670;2023-04-01T01:04:34;0.40;;;0.40;;
10489;SDS011;35569;48.402;10.670;2023-04-01T01:05:07;0.40;;;0.40;;
10489;SDS011;35569;48.402;10.670;2023-04-01T01:05:46;0.40;;;0.40;;
10489;SDS011;35569;48.402;10.670;2023-04-01T01:06:35;0.40;;;0.40;;
10489;SDS011;35569;48.402;10.670;2023-04-01T01:07:16;0.40;;;0.40;;
10489;SDS011;35569;48.402;10.670;2023-04-01T01:07:53;0.40;;;0.30;;
10489;SDS011;35569;48.402;10.670;2023-04-01T01:08:39;0.40;;;0.40;;
10489;SDS011;35569;48.402;10.670;2023-04-01T01:09:30;0.40;;;0.40;;
10489;SDS011;35569;48.402;10.670;2023-04-01T01:10:09;1.17;;;0.40;;
10489;SDS011;35569;48.402;10.670;2023-04-01T01:10:44;0.40;;;0.30;;
10489;SDS011;35569;48.402;10.670;2023-04-01T01:11:22;0.50;;;0.50;;
10489;SDS011;35569;48.402;10.670;2023-04-01T01:12:13;0.40;;;0.40;;
10489;SDS011;35569;48.402;10.670;2023-04-01T01:12:48;0.40;;;0.40;;
10489;SDS011;35569;48.402;10.670;2023-04-01T01:13:26;0.37;;;0.37;;
10489;SDS011;35569;48.402;10.670;2023-04-01T01:14:04;0.40;;;0.40;;
10489;SDS011;35569;48.402;10.670;2023-04-01T01:14:48;0.40;;;0.40;;
10489;SDS011;35569;48.402;10.670;2023-04-01T01:15:29;0.40;;;0.40;;
10489;SDS011;35569;48.402;10.670;2023-04-01T01:16:05;0.30;;;0.30;;
10489;SDS011;35569;48.402;10.670;2023-04-01T01:16:42;0.40;;;0.40;;
10489;SDS011;35569;48.402;10.670;2023-04-01T01:17:19;0.40;;;0.40;;
10489;SDS011;35569;48.402;10.670;2023-04-01T01:17:58;0.30;;;0.30;;
10489;SDS011;35569;48.402;10.670;2023-04-01T01:18:39;0.40;;;0.40;;
10489;SDS011;35569;48.402;10.670;2023-04-01T01:19:22;0.30;;;0.30;;
10489;SDS011;35569;48.402;10.670;2023-04-01T01:22:09;0.40;;;0.40;;
10489;SDS011;35569;48.402;10.670;2023-04-01T01:24:09;0.40;;;0.40;;
10489;SDS011;35569;48.402;10.670;2023-04-01T01:24:56;0.50;;;0.40;;
10489;SDS011;35569;48.402;10.670;2023-04-01T01:25:39;0.40;;;0.40;;
10489;SDS011;35569;48.402;10.670;2023-04-01T01:27:19;0.40;;;0.40;;
10489;SDS011;35569;48.402;10.670;2023-04-01T01:27:56;1.43;;;0.33;;
10489;SDS011;35569;48.402;10.670;2023-04-01T01:28:33;0.40;;;0.30;;
10489;SDS011;35569;48.402;10.670;2023-04-01T01:29:12;0.40;;;0.40;;
10489;SDS011;35569;48.402;10.670;2023-04-01T01:30:00;0.47;;;0.47;;
10489;SDS011;35569;48.402;10.670;2023-04-01T01:30:42;1.30;;;0.40;;
10489;SDS011;35569;48.402;10.670;2023-04-01T01:31:16;0.30;;;0.30;;
10489;SDS011;35569;48.402;10.670;2023-04-01T01:31:54;0.50;;;0.50;;
10489;SDS011;35569;48.402;10.670;2023-04-01T01:32:51;0.30;;;0.30;;
10489;SDS011;35569;48.402;10.670;2023-04-01T01:33:33;0.40;;;0.37;;
10489;SDS011;35569;48.402;10.670;2023-04-01T01:34:12;0.30;;;0.30;;
10489;SDS011;35569;48.402;10.670;2023-04-01T01:34:48;0.30;;;0.30;;
10489;SDS011;35569;48.402;10.670;2023-04-01T01:35:31;0.40;;;0.30;;
10489;SDS011;35569;48.402;10.670;2023-04-01T01:36:07;0.43;;;0.40;;
10489;SDS011;35569;48.402;10.670;2023-04-01T01:36:47;0.30;;;0.30;;
10489;SDS011;35569;48.402;10.670;2023-04-01T01:37:23;0.40;;;0.30;;
10489;SDS011;35569;48.402;10.670;2023-04-01T01:37:58;0.30;;;0.30;;
10489;SDS011;35569;48.402;10.670;2023-04-01T01:38:35;0.30;;;0.30;;
10489;SDS011;35569;48.402;10.670;2023-04-01T01:39:08;0.40;;;0.33;;
10489;SDS011;35569;48.402;10.670;2023-04-01T01:39:42;0.40;;;0.30;;
10489;SDS011;35569;48.402;10.670;2023-04-01T01:40:19;0.40;;;0.30;;
10489;SDS011;35569;48.402;10.670;2023-04-01T01:40:53;0.40;;;0.40;;
10489;SDS011;35569;48.402;10.670;2023-04-01T01:41:29;0.50;;;0.50;;
10489;SDS011;35569;48.402;10.670;2023-04-01T01:42:06;0.40;;;0.40;;
10489;SDS011;35569;48.402;10.670;2023-04-01T01:42:41;0.40;;;0.40;;
10489;SDS011;35569;48.402;10.670;2023-04-01T01:43:16;0.40;;;0.30;;
10489;SDS011;35569;48.402;10.670;2023-04-01T01:43:55;0.30;;;0.30;;
10489;SDS011;35569;48.402;10.670;2023-04-01T01:44:28;0.30;;;0.30;;
10489;SDS011;35569;48.402;10.670;2023-04-01T01:45:02;0.40;;;0.40;;
10489;SDS011;35569;48.402;10.670;2023-04-01T01:45:48;0.30;;;0.30;;
10489;SDS011;35569;48.402;10.670;2023-04-01T01:46:23;0.40;;;0.40;;
10489;SDS011;35569;48.402;10.670;2023-04-01T01:46:57;0.40;;;0.30;;
10489;SDS011;35569;48.402;10.670;2023-04-01T01:47:33;0.40;;;0.40;;
10489;SDS011;35569;48.402;10.670;2023-04-01T01:48:08;0.40;;;0.40;;
10489;SDS011;35569;48.402;10.670;2023-04-01T01:48:42;0.40;;;0.40;;
10489;SDS011;35569;48.402;10.670;2023-04-01T01:49:18;0.40;;;0.30;;
10489;SDS011;35569;48.402;10.670;2023-04-01T01:49:52;0.40;;;0.40;;
10489;SDS011;35569;48.402;10.670;2023-04-01T01:50:25;0.40;;;0.40;;
10489;SDS011;35569;48.402;10.670;2023-04-01T01:51:01;0.40;;;0.40;;
10489;SDS011;35569;48.402;10.670;2023-04-01T01:51:36;0.40;;;0.40;;
10489;SDS011;35569;48.402;10.670;2023-04-01T01:52:11;0.30;;;0.30;;
10489;SDS011;35569;48.402;10.670;2023-04-01T01:52:44;1.50;;;0.43;;
10489;SDS011;35569;48.402;10.670;2023-04-01T01:53:20;0.40;;;0.40;;
10489;SDS011;35569;48.402;10.670;2023-04-01T01:53:53;0.40;;;0.40;;
10489;SDS011;35569;48.402;10.670;2023-04-01T01:54:26;0.43;;;0.43;;
10489;SDS011;35569;48.402;10.670;2023-04-01T01:54:58;0.40;;;0.40;;
10489;SDS011;35569;48.402;10.670;2023-04-01T01:55:45;0.30;;;0.30;;
10489;SDS011;35569;48.402;10.670;2023-04-01T01:56:18;0.30;;;0.30;;
10489;SDS011;35569;48.402;10.670;2023-04-01T01:56:55;0.60;;;0.40;;
10489;SDS011;35569;48.402;10.670;2023-04-01T01:57:36;0.40;;;0.33;;
10489;SDS011;35569;48.402;10.670;2023-04-01T01:58:17;0.40;;;0.40;;
10489;SDS011;35569;48.402;10.670;2023-04-01T01:58:55;0.50;;;0.40;;
10489;SDS011;35569;48.402;10.670;2023-04-01T01:59:30;0.40;;;0.30;;
10489;SDS011;35569;48.402;10.670;2023-04-01T02:00:04;0.40;;;0.40;;
10489;SDS011;35569;48.402;10.670;2023-04-01T02:00:48;0.40;;;0.40;;
10489;SDS011;35569;48.402;10.670;2023-04-01T02:01:27;0.40;;;0.30;;
10489;SDS011;35569;48.402;10.670;2023-04-01T02:02:06;0.40;;;0.40;;
10489;SDS011;35569;48.402;10.670;2023-04-01T02:02:39;0.40;;;0.40;;
10489;SDS011;35569;48.402;10.670;2023-04-01T02:03:15;0.40;;;0.40;;
10489;SDS011;35569;48.402;10.670;2023-04-01T02:03:49;0.40;;;0.40;;
10489;SDS011;35569;48.402;10.670;2023-04-01T02:04:25;1.03;;;0.40;;
10489;SDS011;35569;48.402;10.670;2023-04-01T02:04:58;0.40;;;0.40;;
10489;SDS011;35569;48.402;10.670;2023-04-01T02:05:31;0.40;;;0.40;;
10489;SDS011;35569;48.402;10.670;2023-04-01T02:06:15;0.30;;;0.30;;
10489;SDS011;35569;48.402;10.670;2023-04-01T02:06:51;0.40;;;0.40;;
10489;SDS011;35569;48.402;10.670;2023-04-01T02:07:30;0.40;;;0.40;;
10489;SDS011;35569;48.402;10.670;2023-04-01T02:08:05;0.40;;;0.30;;
10489;SDS011;35569;48.402;10.670;2023-04-01T02:08:39;0.30;;;0.30;;
10489;SDS011;35569;48.402;10.670;2023-04-01T02:09:16;0.40;;;0.40;;
10489;SDS011;35569;48.402;10.670;2023-04-01T02:09:49;0.50;;;0.50;;
10489;SDS011;35569;48.402;10.670;2023-04-01T02:10:22;0.40;;;0.40;;
10489;SDS011;35569;48.402;10.670;2023-04-01T02:10:58;0.57;;;0.57;;
10489;SDS011;35569;48.402;10.670;2023-04-01T02:11:41;0.40;;;0.40;;
10489;SDS011;35569;48.402;10.670;2023-04-01T02:12:15;0.50;;;0.37;;
10489;SDS011;35569;48.402;10.670;2023-04-01T02:12:49;0.40;;;0.40;;
10489;SDS011;35569;48.402;10.670;2023-04-01T02:13:26;0.40;;;0.40;;
10489;SDS011;35569;48.402;10.670;2023-04-01T02:14:02;0.40;;;0.40;;
10489;SDS011;35569;48.402;10.670;2023-04-01T02:14:36;0.50;;;0.30;;
10489;SDS011;35569;48.402;10.670;2023-04-01T02:15:14;0.40;;;0.40;;
10489;SDS011;35569;48.402;10.670;2023-04-01T02:15:48;0.40;;;0.40;;
10489;SDS011;35569;48.402;10.670;2023-04-01T02:16:22;0.37;;;0.37;;
10489;SDS011;35569;48.402;10.670;2023-04-01T02:16:59;0.30;;;0.30;;
10489;SDS011;35569;48.402;10.670;2023-04-01T02:17:37;0.40;;;0.40;;
10489;SDS011;35569;48.402;10.670;2023-04-01T02:18:12;0.40;;;0.40;;
10489;SDS011;35569;48.402;10.670;2023-04-01T02:18:46;0.40;;;0.40;;
10489;SDS011;35569;48.402;10.670;2023-04-01T02:19:29;0.40;;;0.40;;
10489;SDS011;35569;48.402;10.670;2023-04-01T02:20:06;0.40;;;0.40;;
10489;SDS011;35569;48.402;10.670;2023-04-01T02:20:41;0.30;;;0.30;;
10489;SDS011;35569;48.402;10.670;2023-04-01T02:21:20;0.40;;;0.40;;
10489;SDS011;35569;48.402;10.670;2023-04-01T02:21:54;0.37;;;0.37;;
10489;SDS011;35569;48.402;10.670;2023-04-01T02:22:29;0.30;;;0.30;;
10489;SDS011;35569;48.402;10.670;2023-04-01T02:23:06;0.30;;;0.30;;
10489;SDS011;35569;48.402;10.670;2023-04-01T02:23:39;0.40;;;0.40;;
10489;SDS011;35569;48.402;10.670;2023-04-01T02:24:13;0.40;;;0.30;;
10489;SDS011;35569;48.402;10.670;2023-04-01T02:24:49;0.40;;;0.40;;
10489;SDS011;35569;48.402;10.670;2023-04-01T02:25:23;0.40;;;0.37;;
10489;SDS011;35569;48.402;10.670;2023-04-01T02:25:58;0.40;;;0.40;;
10489;SDS011;35569;48.402;10.670;2023-04-01T02:26:34;0.40;;;0.30;;
10489;SDS011;35569;48.402;10.670;2023-04-01T02:27:07;0.40;;;0.30;;
10489;SDS011;35569;48.402;10.670;2023-04-01T02:27:41;0.40;;;0.40;;
10489;SDS011;35569;48.402;10.670;2023-04-01T02:28:18;0.43;;;0.40;;
10489;SDS011;35569;48.402;10.670;2023-04-01T02:28:52;0.33;;;0.33;;
10489;SDS011;35569;48.402;10.670;2023-04-01T02:29:25;0.77;;;0.33;;
10489;SDS011;35569;48.402;10.670;2023-04-01T02:30:00;0.43;;;0.40;;
10489;SDS011;35569;48.402;10.670;2023-04-01T02:30:35;0.30;;;0.30;;
10489;SDS011;35569;48.402;10.670;2023-04-01T02:31:08;0.30;;;0.30;;
10489;SDS011;35569;48.402;10.670;2023-04-01T02:31:44;0.40;;;0.30;;
10489;SDS011;35569;48.402;10.670;2023-04-01T02:32:17;0.30;;;0.30;;
10489;SDS011;35569;48.402;10.670;2023-04-01T02:32:51;0.30;;;0.30;;
10489;SDS011;35569;48.402;10.670;2023-04-01T02:33:24;0.30;;;0.30;;
10489;SDS011;35569;48.402;10.670;2023-04-01T02:33:59;0.30;;;0.30;;
10489;SDS011;35569;48.402;10.670;2023-04-01T02:34:33;0.40;;;0.30;;
10489;SDS011;35569;48.402;10.670;2023-04-01T02:35:07;0.30;;;0.30;;
10489;SDS011;35569;48.402;10.670;2023-04-01T02:35:44;0.37;;;0.37;;
10489;SDS011;35569;48.402;10.670;2023-04-01T02:36:19;0.40;;;0.40;;
10489;SDS011;35569;48.402;10.670;2023-04-01T02:36:51;0.40;;;0.37;;
10489;SDS011;35569;48.402;10.670;2023-04-01T02:37:27;0.40;;;0.40;;
10489;SDS011;35569;48.402;10.670;2023-04-01T02:38:00;0.30;;;0.30;;
10489;SDS011;35569;48.402;10.670;2023-04-01T02:38:32;0.87;;;0.37;;
10489;SDS011;35569;48.402;10.670;2023-04-01T02:39:10;0.40;;;0.40;;
10489;SDS011;35569;48.402;10.670;2023-04-01T02:39:42;0.30;;;0.30;;
10489;SDS011;35569;48.402;10.670;2023-04-01T02:40:15;0.40;;;0.40;;
10489;SDS011;35569;48.402;10.670;2023-04-01T02:40:49;0.30;;;0.30;;
10489;SDS011;35569;48.402;10.670;2023-04-01T02:41:25;0.40;;;0.40;;
10489;SDS011;35569;48.402;10.670;2023-04-01T02:41:57;0.40;;;0.40;;
10489;SDS011;35569;48.402;10.670;2023-04-01T02:42:30;0.30;;;0.30;;
10489;SDS011;35569;48.402;10.670;2023-04-01T02:43:05;0.30;;;0.30;;
10489;SDS011;35569;48.402;10.670;2023-04-01T02:43:37;0.30;;;0.30;;
10489;SDS011;35569;48.402;10.670;2023-04-01T02:44:10;0.30;;;0.30;;
10489;SDS011;35569;48.402;10.670;2023-04-01T02:44:47;0.40;;;0.30;;
10489;SDS011;35569;48.402;10.670;2023-04-01T02:45:20;0.40;;;0.30;;
10489;SDS011;35569;48.402;10.670;2023-04-01T02:45:52;0.30;;;0.30;;
10489;SDS011;35569;48.402;10.670;2023-04-01T02:46:27;0.30;;;0.30;;
10489;SDS011;35569;48.402;10.670;2023-04-01T02:47:00;0.40;;;0.40;;
10489;SDS011;35569;48.402;10.670;2023-04-01T02:47:33;0.60;;;0.40;;
10489;SDS011;35569;48.402;10.670;2023-04-01T02:48:05;0.30;;;0.30;;
10489;SDS011;35569;48.402;10.670;2023-04-01T02:48:40;0.30;;;0.30;;
10489;SDS011;35569;48.402;10.670;2023-04-01T02:49:13;0.30;;;0.30;;
10489;SDS011;35569;48.402;10.670;2023-04-01T02:49:45;0.40;;;0.30;;
10489;SDS011;35569;48.402;10.670;2023-04-01T02:50:20;0.40;;;0.40;;
10489;SDS011;35569;48.402;10.670;2023-04-01T02:50:53;0.40;;;0.40;;
10489;SDS011;35569;48.402;10.670;2023-04-01T02:51:28;0.30;;;0.30;;
10489;SDS011;35569;48.402;10.670;2023-04-01T02:52:04;0.30;;;0.30;;
10489;SDS011;35569;48.402;10.670;2023-04-01T02:52:36;0.30;;;0.30;;
10489;SDS011;35569;48.402;10.670;2023-04-01T02:53:09;0.40;;;0.30;;
10489;SDS011;35569;48.402;10.670;2023-04-01T02:53:44;0.30;;;0.30;;
10489;SDS011;35569;48.402;10.670;2023-04-01T02:54:16;0.40;;;0.40;;
10489;SDS011;35569;48.402;10.670;2023-04-01T02:54:49;0.60;;;0.40;;
10489;SDS011;35569;48.402;10.670;2023-04-01T02:55:24;0.40;;;0.30;;
10489;SDS011;35569;48.402;10.670;2023-04-01T02:55:56;0.40;;;0.40;;
10489;SDS011;35569;48.402;10.670;2023-04-01T02:56:29;0.30;;;0.30;;
10489;SDS011;35569;48.402;10.670;2023-04-01T02:57:04;0.40;;;0.40;;
10489;SDS011;35569;48.402;10.670;2023-04-01T02:57:36;0.30;;;0.30;;
10489;SDS011;35569;48.402;10.670;2023-04-01T02:58:09;0.30;;;0.30;;
10489;SDS011;35569;48.402;10.670;2023-04-01T02:58:44;0.40;;;0.40;;
10489;SDS011;35569;48.402;10.670;2023-04-01T02:59:16;0.40;;;0.30;;
10489;SDS011;35569;48.402;10.670;2023-04-01T02:59:49;0.40;;;0.30;;
10489;SDS011;35569;48.402;10.670;2023-04-01T03:00:24;0.30;;;0.30;;
10489;SDS011;35569;48.402;10.670;2023-04-01T03:00:57;0.40;;;0.40;;
10489;SDS011;35569;48.402;10.670;2023-04-01T03:01:29;0.30;;;0.30;;
10489;SDS011;35569;48.402;10.670;2023-04-01T03:02:04;0.30;;;0.30;;
10489;SDS011;35569;48.402;10.670;2023-04-01T03:02:38;0.30;;;0.30;;
10489;SDS011;35569;48.402;10.670;2023-04-01T03:03:12;0.40;;;0.40;;
10489;SDS011;35569;48.402;10.670;2023-04-01T03:03:47;0.40;;;0.40;;
10489;SDS011;35569;48.402;10.670;2023-04-01T03:04:19;0.30;;;0.30;;
10489;SDS011;35569;48.402;10.670;2023-04-01T03:04:52;0.30;;;0.30;;
10489;SDS011;35569;48.402;10.670;2023-04-01T03:05:27;0.30;;;0.30;;
10489;SDS011;35569;48.402;10.670;2023-04-01T03:06:04;0.30;;;0.30;;
10489;SDS011;35569;48.402;10.670;2023-04-01T03:06:39;0.40;;;0.30;;
10489;SDS011;35569;48.402;10.670;2023-04-01T03:07:14;0.40;;;0.30;;
10489;SDS011;35569;48.402;10.670;2023-04-01T03:07:47;0.33;;;0.30;;
10489;SDS011;35569;48.402;10.670;2023-04-01T03:08:19;0.33;;;0.30;;
10489;SDS011;35569;48.402;10.670;2023-04-01T03:08:54;0.30;;;0.30;;
10489;SDS011;35569;48.402;10.670;2023-04-01T03:09:27;0.40;;;0.30;;
10489;SDS011;35569;48.402;10.670;2023-04-01T03:10:00;0.40;;;0.30;;
10489;SDS011;35569;48.402;10.670;2023-04-01T03:10:35;0.30;;;0.30;;
10489;SDS011;35569;48.402;10.670;2023-04-01T03:11:08;0.40;;;0.30;;
10489;SDS011;35569;48.402;10.670;2023-04-01T03:11:41;0.30;;;0.30;;
10489;SDS011;35569;48.402;10.670;2023-04-01T03:12:16;0.30;;;0.30;;
10489;SDS011;35569;48.402;10.670;2023-04-01T03:12:54;0.30;;;0.30;;
10489;SDS011;35569;48.402;10.670;2023-04-01T03:13:26;0.40;;;0.30;;
10489;SDS011;35569;48.402;10.670;2023-04-01T03:14:02;0.30;;;0.30;;
10489;SDS011;35569;48.402;10.670;2023-04-01T03:14:34;0.33;;;0.33;;
10489;SDS011;35569;48.402;10.670;2023-04-01T03:15:08;0.40;;;0.37;;
10489;SDS011;35569;48.402;10.670;2023-04-01T03:15:45;0.30;;;0.30;;
10489;SDS011;35569;48.402;10.670;2023-04-01T03:16:18;0.40;;;0.40;;
10489;SDS011;35569;48.402;10.670;2023-04-01T03:16:51;0.30;;;0.30;;
10489;SDS011;35569;48.402;10.670;2023-04-01T03:17:26;0.30;;;0.30;;
10489;SDS011;35569;48.402;10.670;2023-04-01T03:17:59;0.30;;;0.30;;
10489;SDS011;35569;48.402;10.670;2023-04-01T03:18:31;0.30;;;0.30;;
10489;SDS011;35569;48.402;10.670;2023-04-01T03:19:06;0.30;;;0.30;;
10489;SDS011;35569;48.402;10.670;2023-04-01T03:19:39;0.30;;;0.30;;
10489;SDS011;35569;48.402;10.670;2023-04-01T03:20:13;0.30;;;0.30;;
10489;SDS011;35569;48.402;10.670;2023-04-01T03:20:48;0.30;;;0.30;;
10489;SDS011;35569;48.402;10.670;2023-04-01T03:21:21;0.30;;;0.30;;
10489;SDS011;35569;48.402;10.670;2023-04-01T03:21:57;0.30;;;0.30;;
10489;SDS011;35569;48.402;10.670;2023-04-01T03:22:29;0.30;;;0.30;;
10489;SDS011;35569;48.402;10.670;2023-04-01T03:23:04;0.33;;;0.33;;
10489;SDS011;35569;48.402;10.670;2023-04-01T03:23:37;0.37;;;0.30;;
10489;SDS011;35569;48.402;10.670;2023-04-01T03:24:10;0.30;;;0.30;;
10489;SDS011;35569;48.402;10.670;2023-04-01T03:24:45;0.40;;;0.30;;
10489;SDS011;35569;48.402;10.670;2023-04-01T03:25:17;0.30;;;0.30;;
10489;SDS011;35569;48.402;10.670;2023-04-01T03:25:50;0.30;;;0.30;;
10489;SDS011;35569;48.402;10.670;2023-04-01T03:26:25;0.30;;;0.30;;
10489;SDS011;35569;48.402;10.670;2023-04-01T03:26:58;0.30;;;0.30;;
10489;SDS011;35569;48.402;10.670;2023-04-01T03:27:31;0.40;;;0.40;;
10489;SDS011;35569;48.402;10.670;2023-04-01T03:28:03;0.30;;;0.30;;
10489;SDS011;35569;48.402;10.670;2023-04-01T03:28:39;0.30;;;0.30;;
10489;SDS011;35569;48.402;10.670;2023-04-01T03:29:11;0.30;;;0.30;;
10489;SDS011;35569;48.402;10.670;2023-04-01T03:29:44;0.40;;;0.30;;
10489;SDS011;35569;48.402;10.670;2023-04-01T03:30:19;0.30;;;0.30;;
10489;SDS011;35569;48.402;10.670;2023-04-01T03:30:54;0.30;;;0.30;;
10489;SDS011;35569;48.402;10.670;2023-04-01T03:31:27;0.30;;;0.30;;
10489;SDS011;35569;48.402;10.670;2023-04-01T03:32:02;0.30;;;0.30;;
10489;SDS011;35569;48.402;10.670;2023-04-01T03:32:36;0.30;;;0.30;;
10489;SDS011;35569;48.402;10.670;2023-04-01T03:33:09;0.30;;;0.30;;